Aviation Digital Data Service (ADDS)

Output produced by METARs form (0154 UTC 08 February 2016)
found at http://aviationweather.gov/adds/metars/
 
KMPV 072323Z 0800/0824 00000KT P6SM SCT200 
     FM080600 VRB03KT P6SM BKN070 
     FM081900 VRB03KT P6SM VCSH BKN050